Time;durP1;ratioP1;P1;durP2;ratioP2;P2;SDS_P1;SDS_P2;PMS_P1;PMS_P2;Temp;Humidity;BMP_temperature;BMP_pressure;BME280_temperature;BME280_humidity;BME280_pressure;Samples;Min_cycle;Max_cycle;Signal;HPM_P1;HPM_P2
2024/01/12 00:00:15;;;;;;;56.88;35.47;;;20.40;48.90;;;;;;5037010;28;20047;-68
2024/01/12 00:02:41;;;;;;;52.88;36.08;;;20.40;48.90;;;;;;5039376;28;20083;-68
2024/01/12 00:05:07;;;;;;;58.95;37.03;;;20.40;48.90;;;;;;5038821;28;20021;-68
2024/01/12 00:07:33;;;;;;;59.85;36.70;;;20.40;48.90;;;;;;5039334;28;20091;-68
2024/01/12 00:09:59;;;;;;;58.75;36.38;;;20.30;48.90;;;;;;5038632;28;20021;-68
2024/01/12 00:12:24;;;;;;;57.05;36.05;;;20.30;49.50;;;;;;5037645;28;20021;-68
2024/01/12 00:14:50;;;;;;;60.47;37.05;;;20.30;49.00;;;;;;5034161;28;20558;-66
2024/01/12 00:17:18;;;;;;;55.28;36.47;;;20.30;49.00;;;;;;5040621;28;20076;-66
2024/01/12 00:19:44;;;;;;;59.85;37.05;;;20.20;49.00;;;;;;5039107;28;20021;-64
2024/01/12 00:22:10;;;;;;;56.92;36.20;;;20.20;49.00;;;;;;5040043;28;20029;-65
2024/01/12 00:24:36;;;;;;;55.58;35.92;;;20.20;49.10;;;;;;5037192;28;20408;-66
2024/01/12 00:27:01;;;;;;;58.40;36.53;;;20.20;49.10;;;;;;5040479;28;20120;-64
2024/01/12 00:29:27;;;;;;;58.35;36.50;;;20.20;49.10;;;;;;5037063;28;20030;-65
2024/01/12 00:31:54;;;;;;;54.85;35.47;;;20.10;49.10;;;;;;5038905;28;20028;-64
2024/01/12 00:34:19;;;;;;;57.10;35.35;;;20.20;49.20;;;;;;5038838;28;20108;-67
2024/01/12 00:36:47;;;;;;;55.85;35.83;;;20.10;49.20;;;;;;5041462;28;20104;-67
2024/01/12 00:39:13;;;;;;;56.38;35.53;;;20.10;49.20;;;;;;5035881;28;20025;-66
2024/01/12 00:41:39;;;;;;;57.53;35.20;;;20.10;49.20;;;;;;5039077;28;20106;-67
2024/01/12 00:44:05;;;;;;;55.80;35.08;;;20.00;49.20;;;;;;5039540;28;20036;-67
2024/01/12 00:46:32;;;;;;;51.30;34.50;;;20.00;49.20;;;;;;5039113;28;20021;-67
2024/01/12 00:48:58;;;;;;;53.05;34.17;;;20.00;49.30;;;;;;5037932;28;20090;-66
2024/01/12 00:51:23;;;;;;;54.88;35.63;;;20.00;49.30;;;;;;5040436;28;20108;-66
2024/01/12 00:53:49;;;;;;;55.28;35.70;;;19.90;49.30;;;;;;5038677;28;20040;-67
2024/01/12 00:56:15;;;;;;;54.65;35.05;;;19.90;49.30;;;;;;5037602;28;20020;-66
2024/01/12 00:58:41;;;;;;;52.42;34.33;;;19.90;49.30;;;;;;5037563;28;20032;-66
2024/01/12 01:01:06;;;;;;;53.50;34.10;;;19.90;49.40;;;;;;5036701;28;20554;-66
2024/01/12 01:03:32;;;;;;;52.13;33.75;;;19.90;49.40;;;;;;5038339;28;20038;-66
2024/01/12 01:05:57;;;;;;;50.20;34.03;;;19.90;49.40;;;;;;5036462;28;20482;-67
2024/01/12 01:08:23;;;;;;;53.38;34.10;;;19.80;49.40;;;;;;5037781;28;20033;-66
2024/01/12 01:10:52;;;;;;;53.20;33.97;;;19.80;49.40;;;;;;5035408;28;20025;-66
2024/01/12 01:13:17;;;;;;;51.50;34.30;;;19.80;49.40;;;;;;5042565;28;20548;-66
2024/01/12 01:15:43;;;;;;;52.70;34.08;;;19.80;49.50;;;;;;5036321;28;20099;-66
2024/01/12 01:18:10;;;;;;;47.22;32.33;;;19.80;49.50;;;;;;5038432;28;20112;-66
2024/01/12 01:20:36;;;;;;;51.97;34.17;;;19.70;50.00;;;;;;5040473;28;20461;-66
2024/01/12 01:23:02;;;;;;;51.55;33.95;;;19.70;49.50;;;;;;5038325;28;20495;-66
2024/01/12 01:25:28;;;;;;;50.33;33.22;;;19.70;49.50;;;;;;5038100;28;20091;-68
2024/01/12 01:27:54;;;;;;;51.20;32.65;;;19.70;50.10;;;;;;5037103;28;20396;-68
2024/01/12 01:30:20;;;;;;;51.70;32.83;;;19.70;49.60;;;;;;5036116;28;20475;-68
2024/01/12 01:32:47;;;;;;;50.10;33.08;;;19.60;49.50;;;;;;5039571;28;20033;-68
2024/01/12 01:35:13;;;;;;;50.08;33.38;;;19.60;49.50;;;;;;5035894;28;20038;-67
2024/01/12 01:37:39;;;;;;;50.03;32.65;;;19.70;49.60;;;;;;5041080;28;20029;-68
2024/01/12 01:40:07;;;;;;;46.20;30.38;;;19.60;49.60;;;;;;5037322;28;20099;-68
2024/01/12 01:42:33;;;;;;;46.80;31.20;;;19.60;49.60;;;;;;5039307;28;20022;-68
2024/01/12 01:44:58;;;;;;;47.55;31.60;;;19.60;49.60;;;;;;5036449;28;20721;-68
2024/01/12 01:47:25;;;;;;;47.42;31.08;;;19.60;49.70;;;;;;5036645;28;20030;-68
2024/01/12 01:49:50;;;;;;;47.53;31.10;;;19.60;49.70;;;;;;5039525;28;20041;-68
2024/01/12 01:52:17;;;;;;;46.55;30.17;;;19.50;49.60;;;;;;5037362;28;20388;-67
2024/01/12 01:54:43;;;;;;;46.63;30.73;;;19.50;49.70;;;;;;5039484;28;20025;-67
2024/01/12 01:57:09;;;;;;;46.88;30.83;;;19.50;49.70;;;;;;5036335;28;20394;-68
2024/01/12 01:59:35;;;;;;;45.35;30.48;;;19.50;49.70;;;;;;5035722;28;20056;-68
2024/01/12 02:02:01;;;;;;;47.42;31.00;;;19.50;49.70;;;;;;5034863;28;20419;-68
2024/01/12 02:04:27;;;;;;;41.92;29.08;;;19.50;49.70;;;;;;5037112;28;20033;-68
2024/01/12 02:06:54;;;;;;;41.17;27.88;;;19.50;49.70;;;;;;5036759;28;20096;-68
2024/01/12 02:09:20;;;;;;;43.33;28.27;;;19.40;49.70;;;;;;5037272;28;20025;-67
2024/01/12 02:11:46;;;;;;;41.97;27.98;;;19.40;49.80;;;;;;5034477;28;20051;-68
2024/01/12 02:14:11;;;;;;;44.38;28.75;;;19.40;49.80;;;;;;5034331;28;20026;-68
2024/01/12 02:16:37;;;;;;;39.22;28.08;;;19.40;49.80;;;;;;5033091;28;20056;-65
2024/01/12 02:19:03;;;;;;;40.35;27.95;;;19.40;49.80;;;;;;5038122;28;20037;-63
2024/01/12 02:21:29;;;;;;;39.60;27.42;;;19.40;49.90;;;;;;5039117;28;20087;-65
2024/01/12 02:23:55;;;;;;;40.80;27.52;;;19.40;49.90;;;;;;5036989;28;20076;-64
2024/01/12 02:26:21;;;;;;;39.53;26.98;;;19.30;49.80;;;;;;5038298;28;20049;-64
2024/01/12 02:28:47;;;;;;;40.40;26.50;;;19.30;49.80;;;;;;5039529;28;20117;-64
2024/01/12 02:31:14;;;;;;;36.75;25.52;;;19.30;49.90;;;;;;5035806;28;20033;-65
2024/01/12 02:33:40;;;;;;;37.35;25.88;;;19.30;50.40;;;;;;5037436;28;20036;-64
2024/01/12 02:36:06;;;;;;;38.47;25.27;;;19.30;49.90;;;;;;5036842;28;20118;-64
2024/01/12 02:38:31;;;;;;;37.33;25.23;;;19.30;49.90;;;;;;5036704;28;20029;-65
2024/01/12 02:40:57;;;;;;;37.25;26.17;;;19.20;49.90;;;;;;5034381;28;20355;-65
2024/01/12 02:43:22;;;;;;;35.92;24.35;;;19.20;50.00;;;;;;5034197;28;20037;-66
2024/01/12 02:45:48;;;;;;;33.33;24.25;;;19.20;50.00;;;;;;5034020;28;20045;-65
2024/01/12 02:48:13;;;;;;;32.78;23.08;;;19.20;50.00;;;;;;5037524;28;20021;-64
2024/01/12 02:50:39;;;;;;;36.17;24.55;;;19.20;50.10;;;;;;5035666;28;20470;-64
2024/01/12 02:53:05;;;;;;;34.20;23.95;;;19.10;50.10;;;;;;5037338;28;20036;-64
2024/01/12 02:55:30;;;;;;;32.10;22.83;;;19.10;50.10;;;;;;5041086;28;20497;-66
2024/01/12 02:57:56;;;;;;;31.92;22.55;;;19.10;50.20;;;;;;5038494;28;20052;-66
2024/01/12 03:00:21;;;;;;;32.88;21.20;;;19.10;50.20;;;;;;5038935;28;20116;-66
2024/01/12 03:02:47;;;;;;;30.98;21.88;;;19.10;50.30;;;;;;5042298;28;20098;-66
2024/01/12 03:05:12;;;;;;;31.25;21.77;;;19.00;50.30;;;;;;5041897;28;20043;-66
2024/01/12 03:07:38;;;;;;;31.63;21.63;;;19.00;50.30;;;;;;5040604;28;20021;-66
2024/01/12 03:10:05;;;;;;;30.60;21.55;;;19.00;50.40;;;;;;5044121;28;20024;-66
2024/01/12 03:12:30;;;;;;;30.48;22.35;;;19.00;50.40;;;;;;5042199;28;20029;-66
2024/01/12 03:14:56;;;;;;;30.23;20.33;;;19.00;50.40;;;;;;5041917;28;20140;-66
2024/01/12 03:17:21;;;;;;;28.45;20.75;;;18.90;50.40;;;;;;5037343;28;20035;-66
2024/01/12 03:19:47;;;;;;;29.35;21.23;;;18.90;50.40;;;;;;5041380;28;20397;-66
2024/01/12 03:22:13;;;;;;;29.80;21.40;;;18.90;50.40;;;;;;5022668;28;20055;-66
2024/01/12 03:24:38;;;;;;;29.67;20.83;;;18.90;50.50;;;;;;5038537;28;20033;-68
2024/01/12 03:27:04;;;;;;;28.80;20.75;;;18.90;50.50;;;;;;5041219;28;20554;-66
2024/01/12 03:29:30;;;;;;;28.27;19.90;;;18.80;50.50;;;;;;5043352;28;20018;-66
2024/01/12 03:31:55;;;;;;;30.95;21.15;;;18.90;50.60;;;;;;5038142;28;20126;-66
2024/01/12 03:34:21;;;;;;;29.65;20.85;;;18.90;50.60;;;;;;5041746;28;20046;-66
2024/01/12 03:36:47;;;;;;;32.38;21.67;;;18.80;50.60;;;;;;5040332;28;20455;-66
2024/01/12 03:39:13;;;;;;;28.33;20.92;;;18.90;50.60;;;;;;5042330;28;20039;-66
2024/01/12 03:41:38;;;;;;;28.65;19.90;;;18.80;50.70;;;;;;5042816;28;20022;-66
2024/01/12 03:44:04;;;;;;;29.95;21.13;;;18.80;50.60;;;;;;5040584;28;20133;-66
2024/01/12 03:46:29;;;;;;;26.98;19.98;;;18.80;50.60;;;;;;5039131;28;20028;-65
2024/01/12 03:48:56;;;;;;;28.60;19.98;;;18.80;50.70;;;;;;5040610;28;20096;-66
2024/01/12 03:51:21;;;;;;;28.70;20.35;;;18.80;50.70;;;;;;5038649;28;20080;-64
2024/01/12 03:53:47;;;;;;;29.98;20.55;;;18.80;50.70;;;;;;5038558;28;20044;-64
2024/01/12 03:56:14;;;;;;;28.50;20.05;;;18.80;50.70;;;;;;5042414;28;20069;-65
2024/01/12 03:58:40;;;;;;;30.67;20.75;;;18.80;50.70;;;;;;5041108;28;20094;-64
2024/01/12 04:01:09;;;;;;;28.35;20.45;;;18.80;50.70;;;;;;5037041;28;20079;-64
2024/01/12 04:03:35;;;;;;;28.88;20.33;;;18.80;50.70;;;;;;5039929;28;20029;-64
2024/01/12 04:06:00;;;;;;;27.88;19.40;;;18.70;50.70;;;;;;5038834;28;20365;-68
2024/01/12 04:08:26;;;;;;;29.13;20.20;;;18.70;50.70;;;;;;5041546;28;20053;-68
2024/01/12 04:10:52;;;;;;;29.20;21.05;;;18.70;50.70;;;;;;5040801;28;21025;-67
2024/01/12 04:13:17;;;;;;;30.67;20.80;;;18.70;50.70;;;;;;5037873;28;20029;-68
2024/01/12 04:15:43;;;;;;;29.30;20.98;;;18.80;50.80;;;;;;5040162;28;20031;-67
2024/01/12 04:18:09;;;;;;;29.02;20.98;;;18.70;50.80;;;;;;5038580;28;20470;-67
2024/01/12 04:20:35;;;;;;;28.63;20.73;;;18.70;50.80;;;;;;5042258;28;20021;-68
2024/01/12 04:23:00;;;;;;;28.15;19.95;;;18.70;50.80;;;;;;5039350;28;20555;-67
2024/01/12 04:25:26;;;;;;;28.02;20.70;;;18.70;50.80;;;;;;5042565;28;20128;-68
2024/01/12 04:27:51;;;;;;;28.77;20.25;;;18.70;50.80;;;;;;5038569;28;20053;-68
2024/01/12 04:30:17;;;;;;;29.77;20.63;;;18.70;50.80;;;;;;5036733;28;20075;-67
2024/01/12 04:32:43;;;;;;;28.23;19.85;;;18.70;50.80;;;;;;5036862;28;20039;-68
2024/01/12 04:35:09;;;;;;;27.42;20.15;;;18.70;50.80;;;;;;5039601;28;20036;-64
2024/01/12 04:37:35;;;;;;;27.25;19.38;;;18.70;50.80;;;;;;5037021;28;20060;-64
2024/01/12 04:40:01;;;;;;;28.08;19.73;;;18.70;50.90;;;;;;5038016;28;20057;-65
2024/01/12 04:42:26;;;;;;;28.80;20.42;;;18.60;50.90;;;;;;5040400;28;20029;-64
2024/01/12 04:44:52;;;;;;;28.30;19.83;;;18.60;50.90;;;;;;5043080;28;20572;-65
2024/01/12 04:47:17;;;;;;;28.55;20.88;;;18.60;50.90;;;;;;5036651;28;20025;-64
2024/01/12 04:49:43;;;;;;;30.80;20.90;;;18.60;50.90;;;;;;5038926;28;20497;-64
2024/01/12 04:52:09;;;;;;;26.23;19.40;;;18.60;51.00;;;;;;5038067;28;20465;-64
2024/01/12 04:54:34;;;;;;;28.90;20.35;;;18.60;51.00;;;;;;5040509;28;20029;-64
2024/01/12 04:57:00;;;;;;;25.85;19.20;;;18.60;51.00;;;;;;5037814;28;20041;-64
2024/01/12 04:59:25;;;;;;;27.67;20.52;;;18.60;51.00;;;;;;5039982;28;20026;-64
2024/01/12 05:01:51;;;;;;;28.60;20.13;;;18.60;51.00;;;;;;5036072;28;20025;-64
2024/01/12 05:04:17;;;;;;;28.17;20.55;;;18.60;51.60;;;;;;5040514;28;20025;-65
2024/01/12 05:06:43;;;;;;;29.75;20.52;;;18.60;51.00;;;;;;5039040;28;20028;-64
2024/01/12 05:09:08;;;;;;;28.70;20.55;;;18.60;51.00;;;;;;5038661;28;20021;-64
2024/01/12 05:11:37;;;;;;;28.23;19.40;;;18.60;51.10;;;;;;5036276;28;20035;-63
2024/01/12 05:14:03;;;;;;;28.00;20.33;;;18.60;51.10;;;;;;5035984;28;20488;-64
2024/01/12 05:16:29;;;;;;;26.45;19.90;;;18.60;51.10;;;;;;5035427;28;20035;-67
2024/01/12 05:18:54;;;;;;;29.23;20.17;;;18.60;51.10;;;;;;5040957;28;20548;-67
2024/01/12 05:21:20;;;;;;;27.02;19.25;;;18.60;51.10;;;;;;5038595;28;20026;-67
2024/01/12 05:23:45;;;;;;;27.92;20.48;;;18.50;51.10;;;;;;5038268;28;20036;-67
2024/01/12 05:26:14;;;;;;;26.63;20.17;;;18.60;51.20;;;;;;5037894;28;20033;-67
2024/01/12 05:28:40;;;;;;;27.77;19.53;;;18.60;51.20;;;;;;5037268;28;20064;-67
2024/01/12 05:31:09;;;;;;;26.38;19.05;;;18.60;51.20;;;;;;5039603;28;20306;-67
2024/01/12 05:33:34;;;;;;;27.02;19.85;;;18.50;51.20;;;;;;5038810;28;20092;-67
2024/01/12 05:36:00;;;;;;;24.92;18.63;;;18.60;51.20;;;;;;5038529;28;20136;-66
2024/01/12 05:38:26;;;;;;;27.90;19.77;;;18.50;51.20;;;;;;5038048;28;20025;-67
2024/01/12 05:40:51;;;;;;;25.13;18.65;;;18.50;51.20;;;;;;5037522;28;20076;-67
2024/01/12 05:43:18;;;;;;;24.50;18.17;;;18.50;51.20;;;;;;5036916;28;20030;-67
2024/01/12 05:45:43;;;;;;;23.50;17.85;;;18.50;51.20;;;;;;5036585;28;20116;-64
2024/01/12 05:48:09;;;;;;;25.95;18.25;;;18.50;51.20;;;;;;5034812;28;20545;-64
2024/01/12 05:50:35;;;;;;;25.30;18.80;;;18.50;51.20;;;;;;5038121;28;20029;-65
2024/01/12 05:53:01;;;;;;;23.65;18.38;;;18.50;51.20;;;;;;5038110;28;20036;-65
2024/01/12 05:55:27;;;;;;;24.35;18.00;;;18.50;51.20;;;;;;5037656;28;20025;-64
2024/01/12 05:57:52;;;;;;;25.65;17.85;;;18.50;51.30;;;;;;5038325;28;20083;-64
2024/01/12 06:00:18;;;;;;;22.80;17.88;;;18.50;51.30;;;;;;5036008;28;20036;-65
2024/01/12 06:02:43;;;;;;;25.58;17.77;;;18.50;51.30;;;;;;5034274;28;20029;-64
2024/01/12 06:05:09;;;;;;;25.52;18.48;;;18.50;51.30;;;;;;5037776;28;20503;-67
2024/01/12 06:07:35;;;;;;;23.35;17.70;;;18.50;51.30;;;;;;5037347;28;20029;-67
2024/01/12 06:10:00;;;;;;;23.60;17.73;;;18.50;51.30;;;;;;5034975;28;20033;-67
2024/01/12 06:12:26;;;;;;;24.00;17.38;;;18.50;51.40;;;;;;5038764;28;20047;-67
2024/01/12 06:14:53;;;;;;;23.02;17.15;;;18.50;51.40;;;;;;5037314;28;20136;-67
2024/01/12 06:17:18;;;;;;;23.02;16.70;;;18.50;51.40;;;;;;5035724;28;20029;-67
2024/01/12 06:19:44;;;;;;;23.75;17.27;;;18.50;51.40;;;;;;5037075;28;20587;-67
2024/01/12 06:22:10;;;;;;;23.80;17.67;;;18.50;51.40;;;;;;5036878;28;20033;-67
2024/01/12 06:24:35;;;;;;;22.92;16.73;;;18.50;51.40;;;;;;5038452;28;20040;-67
2024/01/12 06:27:02;;;;;;;23.30;16.90;;;18.50;51.40;;;;;;5038714;28;20026;-67
2024/01/12 06:29:28;;;;;;;23.20;16.83;;;18.50;51.40;;;;;;5037223;28;20040;-67
2024/01/12 06:31:53;;;;;;;23.30;16.38;;;18.50;51.40;;;;;;5042386;28;20030;-67
2024/01/12 06:34:19;;;;;;;21.73;16.88;;;18.50;51.50;;;;;;5040920;28;20416;-67
2024/01/12 06:36:45;;;;;;;21.17;15.75;;;18.40;51.40;;;;;;5040712;28;20271;-67
2024/01/12 06:39:11;;;;;;;22.77;16.75;;;18.50;51.50;;;;;;5039372;28;20036;-67
2024/01/12 06:41:46;;;;;;;22.92;15.80;;;18.40;51.40;;;;;;5041276;28;20040;-67
2024/01/12 06:44:12;;;;;;;21.42;15.75;;;18.50;51.50;;;;;;5039805;28;20031;-67
2024/01/12 06:46:42;;;;;;;22.73;16.52;;;18.40;51.40;;;;;;5043214;28;20037;-67
2024/01/12 06:49:09;;;;;;;20.92;15.63;;;18.40;51.50;;;;;;5037854;28;20045;-67
2024/01/12 06:51:34;;;;;;;20.90;15.27;;;18.40;51.50;;;;;;5038792;28;20424;-67
2024/01/12 06:54:00;;;;;;;23.55;16.58;;;18.40;51.50;;;;;;5037899;28;20044;-67
2024/01/12 06:56:26;;;;;;;20.85;15.05;;;18.40;51.50;;;;;;5037382;28;20099;-64
2024/01/12 06:58:51;;;;;;;20.05;15.38;;;18.40;51.50;;;;;;5039757;28;20032;-64
2024/01/12 07:01:18;;;;;;;21.73;15.70;;;18.40;51.50;;;;;;5038556;28;20034;-64
2024/01/12 07:03:45;;;;;;;19.08;14.75;;;18.40;51.50;;;;;;5038649;28;20026;-64
2024/01/12 07:06:11;;;;;;;20.58;15.35;;;18.40;52.10;;;;;;5040608;28;20035;-65
2024/01/12 07:08:36;;;;;;;20.15;15.23;;;18.40;51.50;;;;;;5039148;28;20037;-64
2024/01/12 07:11:06;;;;;;;20.80;15.68;;;18.40;51.50;;;;;;5041661;28;20188;-64
2024/01/12 07:13:32;;;;;;;19.55;15.27;;;18.30;51.50;;;;;;5041904;28;20022;-64
2024/01/12 07:15:58;;;;;;;21.10;15.52;;;18.40;51.50;;;;;;5040892;28;20026;-64
2024/01/12 07:18:23;;;;;;;20.50;14.57;;;18.40;51.60;;;;;;5041887;28;20026;-64
2024/01/12 07:20:49;;;;;;;19.77;14.70;;;18.40;51.50;;;;;;5042293;28;20034;-65
2024/01/12 07:23:14;;;;;;;18.02;14.38;;;18.40;51.60;;;;;;5040127;28;20477;-65
2024/01/12 07:25:40;;;;;;;18.85;14.13;;;18.30;51.50;;;;;;5043077;28;20047;-64
2024/01/12 07:28:06;;;;;;;19.30;14.27;;;18.40;51.60;;;;;;5041553;28;20100;-64
2024/01/12 07:30:32;;;;;;;18.88;14.00;;;18.40;51.60;;;;;;5042946;28;20505;-64
2024/01/12 07:32:59;;;;;;;18.73;13.95;;;18.40;51.60;;;;;;5038090;28;20029;-64
2024/01/12 07:35:25;;;;;;;19.45;13.88;;;18.40;51.60;;;;;;5041239;28;20026;-67
2024/01/12 07:37:51;;;;;;;16.58;13.02;;;18.40;51.60;;;;;;5042999;28;20388;-67
2024/01/12 07:40:17;;;;;;;17.55;14.05;;;18.40;51.60;;;;;;5039836;28;20062;-67
2024/01/12 07:42:43;;;;;;;18.90;13.40;;;18.30;51.50;;;;;;5037382;28;20108;-67
2024/01/12 07:45:11;;;;;;;17.98;13.75;;;18.30;51.70;;;;;;5039590;28;20029;-67
2024/01/12 07:47:36;;;;;;;19.02;14.00;;;18.30;51.60;;;;;;5037026;28;20594;-67
2024/01/12 07:50:02;;;;;;;18.67;13.52;;;18.30;51.60;;;;;;5040875;28;20029;-67
2024/01/12 07:52:28;;;;;;;17.63;12.88;;;18.30;51.60;;;;;;5040647;28;20458;-67
2024/01/12 07:54:54;;;;;;;17.45;13.60;;;18.30;51.60;;;;;;5039405;28;20120;-67
2024/01/12 07:57:19;;;;;;;18.55;13.82;;;18.30;51.60;;;;;;5040103;28;20052;-67
2024/01/12 07:59:45;;;;;;;15.73;12.90;;;18.30;51.60;;;;;;5040690;28;20035;-67
2024/01/12 08:02:11;;;;;;;18.13;13.93;;;18.30;51.60;;;;;;5040250;28;20028;-67
2024/01/12 08:04:37;;;;;;;16.52;12.95;;;18.30;51.60;;;;;;5039673;28;20029;-67
2024/01/12 08:07:03;;;;;;;16.02;12.93;;;18.30;51.60;;;;;;5040847;28;20038;-67
2024/01/12 08:09:29;;;;;;;15.15;11.63;;;18.30;52.10;;;;;;5040397;28;20021;-67
2024/01/12 08:11:55;;;;;;;17.38;12.40;;;18.30;51.60;;;;;;5040156;28;20025;-67
2024/01/12 08:14:20;;;;;;;16.90;12.57;;;18.30;51.60;;;;;;5038950;28;20029;-67
2024/01/12 08:16:46;;;;;;;17.52;12.35;;;18.30;51.60;;;;;;5041028;28;20353;-67
2024/01/12 08:19:12;;;;;;;15.73;12.40;;;18.30;51.60;;;;;;5033464;28;20470;-67
2024/01/12 08:21:38;;;;;;;16.73;12.20;;;18.30;51.60;;;;;;5040385;28;20167;-67
2024/01/12 08:24:03;;;;;;;17.15;12.38;;;18.30;51.60;;;;;;5038404;28;20486;-67
2024/01/12 08:26:29;;;;;;;15.73;12.05;;;18.30;51.60;;;;;;5040137;28;20453;-66
2024/01/12 08:28:56;;;;;;;17.30;12.25;;;18.30;51.60;;;;;;5039154;28;20037;-66
2024/01/12 08:31:22;;;;;;;15.85;12.73;;;18.30;51.60;;;;;;5041477;28;20044;-66
2024/01/12 08:33:49;;;;;;;17.00;12.55;;;18.30;51.60;;;;;;5038687;28;20354;-66
2024/01/12 08:36:15;;;;;;;16.92;12.63;;;18.30;51.60;;;;;;5039414;28;20021;-66
2024/01/12 08:38:41;;;;;;;15.77;12.68;;;18.30;51.60;;;;;;5038099;28;20029;-66
2024/01/12 08:41:07;;;;;;;17.67;12.43;;;18.30;51.60;;;;;;5037515;28;20421;-66
2024/01/12 08:43:33;;;;;;;16.10;12.10;;;18.30;51.60;;;;;;5039176;28;20116;-66
2024/01/12 08:45:58;;;;;;;17.00;12.38;;;18.30;51.60;;;;;;5038299;28;20029;-64
2024/01/12 08:48:24;;;;;;;15.05;11.82;;;18.30;51.70;;;;;;5035088;28;20021;-65
2024/01/12 08:50:49;;;;;;;15.48;11.65;;;18.30;51.70;;;;;;5038217;28;20455;-65
2024/01/12 08:53:16;;;;;;;15.63;11.82;;;18.30;51.60;;;;;;5039885;28;20028;-64
2024/01/12 08:55:42;;;;;;;15.07;11.15;;;18.30;51.70;;;;;;5038620;28;20021;-64
2024/01/12 08:58:08;;;;;;;13.90;11.10;;;18.30;51.70;;;;;;5038730;28;20120;-64
2024/01/12 09:00:34;;;;;;;14.93;11.75;;;18.30;51.70;;;;;;5039765;28;20021;-64
2024/01/12 09:02:59;;;;;;;14.55;11.40;;;18.30;51.70;;;;;;5038594;28;20031;-64
2024/01/12 09:05:25;;;;;;;15.43;11.57;;;18.20;51.60;;;;;;5037830;28;20064;-64
2024/01/12 09:07:51;;;;;;;13.93;11.02;;;18.20;51.60;;;;;;5038729;28;20485;-64
2024/01/12 09:10:17;;;;;;;15.55;11.02;;;18.20;51.60;;;;;;5039038;28;20092;-64
2024/01/12 09:12:42;;;;;;;13.63;10.05;;;18.20;51.60;;;;;;5035414;28;20053;-65
2024/01/12 09:15:09;;;;;;;12.75;9.75;;;18.20;51.60;;;;;;5040446;28;20139;-65
2024/01/12 09:17:35;;;;;;;14.70;11.27;;;18.20;51.70;;;;;;5036886;28;20041;-66
2024/01/12 09:20:00;;;;;;;14.68;11.02;;;18.20;51.60;;;;;;5036834;28;20464;-66
2024/01/12 09:22:26;;;;;;;14.52;10.65;;;18.20;51.60;;;;;;5040024;28;20046;-66
2024/01/12 09:24:52;;;;;;;14.07;10.63;;;18.20;51.70;;;;;;5040012;28;20128;-66
2024/01/12 09:27:17;;;;;;;15.70;11.68;;;18.20;51.70;;;;;;5038897;28;20037;-66
2024/01/12 09:29:43;;;;;;;13.15;10.77;;;18.20;51.70;;;;;;5037553;28;20378;-66
2024/01/12 09:32:09;;;;;;;14.57;10.63;;;18.20;51.70;;;;;;5037636;28;20543;-66
2024/01/12 09:34:35;;;;;;;13.63;10.35;;;18.20;51.70;;;;;;5035909;28;20543;-66
2024/01/12 09:37:00;;;;;;;14.05;10.48;;;18.20;51.70;;;;;;5037374;28;20036;-64
2024/01/12 09:39:26;;;;;;;13.77;10.55;;;18.20;51.70;;;;;;5036729;28;20025;-65
2024/01/12 09:41:59;;;;;;;13.48;10.55;;;18.20;51.70;;;;;;5039122;28;20500;-64
2024/01/12 09:44:27;;;;;;;13.20;10.15;;;18.20;51.70;;;;;;5035786;28;20101;-64
2024/01/12 09:46:57;;;;;;;12.82;9.70;;;18.20;51.70;;;;;;5033330;28;20040;-64
2024/01/12 09:49:28;;;;;;;12.80;9.38;;;18.20;51.70;;;;;;5035129;28;20040;-65
2024/01/12 09:51:55;;;;;;;12.48;9.82;;;18.20;51.70;;;;;;5041592;28;20032;-64
2024/01/12 09:54:21;;;;;;;13.27;10.10;;;18.20;51.70;;;;;;5034581;28;20493;-65
2024/01/12 09:56:47;;;;;;;12.07;9.73;;;18.20;51.70;;;;;;5037181;28;20025;-65
2024/01/12 09:59:12;;;;;;;12.15;9.32;;;18.20;51.70;;;;;;5039695;28;20041;-65
2024/01/12 10:01:41;;;;;;;12.63;10.02;;;18.20;51.70;;;;;;5034676;28;20037;-64
2024/01/12 10:04:07;;;;;;;12.65;9.80;;;18.20;51.70;;;;;;5035286;28;20584;-64
2024/01/12 10:06:32;;;;;;;11.75;9.02;;;18.20;51.70;;;;;;5038265;28;20108;-65
2024/01/12 10:08:58;;;;;;;13.20;9.55;;;18.10;51.70;;;;;;5036768;28;20091;-64
2024/01/12 10:11:24;;;;;;;13.20;10.40;;;18.10;51.70;;;;;;5030819;28;20033;-64
2024/01/12 10:13:50;;;;;;;13.90;10.13;;;18.20;51.70;;;;;;5035902;28;20079;-65
2024/01/12 10:16:17;;;;;;;10.95;9.00;;;18.20;51.70;;;;;;5038383;28;20021;-64
2024/01/12 10:18:42;;;;;;;11.68;8.90;;;18.10;51.70;;;;;;5035471;28;20032;-65
2024/01/12 10:21:08;;;;;;;12.23;9.55;;;18.10;51.70;;;;;;5035376;28;20021;-64
2024/01/12 10:23:35;;;;;;;11.38;8.85;;;18.20;51.80;;;;;;5037956;28;20155;-64
2024/01/12 10:26:03;;;;;;;11.57;9.05;;;18.10;51.70;;;;;;5038584;28;20061;-67
2024/01/12 10:28:30;;;;;;;12.00;9.18;;;18.20;51.70;;;;;;5040586;28;20053;-67
2024/01/12 10:30:56;;;;;;;12.80;9.30;;;18.20;51.70;;;;;;5036799;28;20024;-68
2024/01/12 10:33:22;;;;;;;12.00;8.88;;;18.10;51.70;;;;;;5039887;28;20044;-67
2024/01/12 10:35:56;;;;;;;11.85;8.68;;;18.10;51.70;;;;;;5032478;28;20690;-67
2024/01/12 10:38:23;;;;;;;11.63;8.85;;;18.10;51.70;;;;;;5035422;28;20527;-67
2024/01/12 10:40:50;;;;;;;10.80;8.27;;;18.10;51.70;;;;;;5036789;28;20037;-67
2024/01/12 10:43:17;;;;;;;10.60;8.57;;;18.10;51.70;;;;;;5037244;28;20017;-67
2024/01/12 10:45:49;;;;;;;10.43;8.27;;;18.10;51.70;;;;;;5038243;28;20083;-64
2024/01/12 10:48:19;;;;;;;11.27;8.57;;;18.10;51.70;;;;;;5034658;28;20359;-64
2024/01/12 10:50:48;;;;;;;11.48;8.93;;;18.10;51.70;;;;;;5035771;28;20079;-65
2024/01/12 10:53:37;;;;;;;12.45;8.82;;;18.10;51.80;;;;;;5040254;28;20444;-65
2024/01/12 10:56:03;;;;;;;11.27;8.60;;;18.10;51.70;;;;;;5037356;28;20080;-65
2024/01/12 10:58:29;;;;;;;10.57;8.27;;;18.10;51.70;;;;;;5035824;28;20509;-65
2024/01/12 11:00:55;;;;;;;11.90;8.73;;;18.10;51.70;;;;;;5037869;28;20366;-65
2024/01/12 11:03:22;;;;;;;9.63;8.05;;;18.10;52.20;;;;;;5038321;28;20025;-65
2024/01/12 11:05:49;;;;;;;9.85;7.93;;;18.10;51.70;;;;;;5036745;28;20041;-64
2024/01/12 11:08:15;;;;;;;10.48;8.45;;;18.10;51.70;;;;;;5037151;28;20025;-64
2024/01/12 11:10:48;;;;;;;10.60;8.15;;;18.10;51.70;;;;;;5038970;28;20099;-65
2024/01/12 11:13:16;;;;;;;10.98;8.38;;;18.10;51.70;;;;;;5035700;28;20025;-63
2024/01/12 11:15:43;;;;;;;10.70;7.93;;;18.10;51.70;;;;;;5039661;28;20021;-64
2024/01/12 11:18:09;;;;;;;9.25;7.10;;;18.10;51.70;;;;;;5043809;28;20032;-64
2024/01/12 11:20:34;;;;;;;10.07;7.82;;;18.10;51.80;;;;;;5036920;28;20390;-64
2024/01/12 11:23:00;;;;;;;10.13;7.95;;;18.10;51.80;;;;;;5039566;28;20025;-64
2024/01/12 11:25:26;;;;;;;9.43;7.75;;;18.10;51.80;;;;;;5041763;28;20444;-64
2024/01/12 11:27:52;;;;;;;10.35;8.13;;;18.10;51.80;;;;;;5040474;28;20024;-64
2024/01/12 11:30:19;;;;;;;10.32;7.80;;;18.10;52.40;;;;;;5040348;28;20018;-65
2024/01/12 11:32:46;;;;;;;9.02;7.05;;;18.20;52.00;;;;;;5041425;28;20028;-64
2024/01/12 11:35:19;;;;;;;9.55;7.25;;;18.20;52.00;;;;;;5042585;28;20028;-64
2024/01/12 11:37:47;;;;;;;8.93;7.07;;;18.20;52.00;;;;;;5041657;28;20017;-64
2024/01/12 11:40:14;;;;;;;8.20;6.93;;;18.30;52.10;;;;;;5041543;28;20034;-64
2024/01/12 11:42:42;;;;;;;7.85;6.32;;;18.30;52.00;;;;;;5039762;28;20082;-64
2024/01/12 11:45:10;;;;;;;8.60;6.80;;;18.30;52.00;;;;;;5041613;28;20124;-64
2024/01/12 11:47:40;;;;;;;8.07;6.35;;;18.40;52.10;;;;;;5042786;28;20025;-64
2024/01/12 11:50:11;;;;;;;8.30;6.75;;;18.40;52.10;;;;;;5032187;28;20067;-64
2024/01/12 11:52:38;;;;;;;7.63;6.20;;;18.50;52.10;;;;;;5040028;28;20037;-65
2024/01/12 11:55:07;;;;;;;8.32;6.47;;;18.50;52.10;;;;;;5038218;28;20112;-64
2024/01/12 11:57:37;;;;;;;7.35;6.05;;;18.60;52.10;;;;;;5038316;28;20025;-67
2024/01/12 12:00:03;;;;;;;;;;;18.60;52.10;;;;;;5041690;28;20405;-67
2024/01/12 12:02:29;;;;;;;7.30;5.60;;;18.60;52.10;;;;;;5037236;28;19912;-67
2024/01/12 12:04:54;;;;;;;7.88;5.93;;;18.60;52.10;;;;;;5037901;28;20048;-67
2024/01/12 12:07:27;;;;;;;6.75;5.13;;;18.60;52.00;;;;;;5040439;28;20056;-67
2024/01/12 12:09:53;;;;;;;6.70;5.43;;;18.70;52.00;;;;;;5036197;28;20025;-67
2024/01/12 12:12:20;;;;;;;6.57;5.28;;;18.70;52.00;;;;;;5039267;28;20022;-67
2024/01/12 12:15:07;;;;;;;6.80;5.25;;;18.70;52.00;;;;;;5037637;28;20025;-67
2024/01/12 12:17:35;;;;;;;7.30;5.25;;;18.80;52.60;;;;;;5039197;28;20026;-64
2024/01/12 12:20:03;;;;;;;6.85;5.68;;;18.80;52.00;;;;;;5036187;28;20021;-64
2024/01/12 12:22:30;;;;;;;6.97;4.97;;;18.90;52.10;;;;;;5041124;28;20037;-64
2024/01/12 12:24:56;;;;;;;6.25;5.10;;;18.90;52.00;;;;;;5037437;28;20041;-63